Time;durP1;ratioP1;P1;durP2;ratioP2;P2;SDS_P1;SDS_P2;PMS_P1;PMS_P2;Temp;Humidity;BMP_temperature;BMP_pressure;BME280_temperature;BME280_humidity;BME280_pressure;Samples;Min_cycle;Max_cycle;Signal;HPM_P1;HPM_P2
2023/05/03 00:00:50;;;;;;;1.70;1.50;;;;;;;;;;4969747;28;20045;-66
2023/05/03 00:03:15;;;;;;;2.85;1.58;;;;;;;;;;4976978;28;20073;-65
2023/05/03 00:05:40;;;;;;;2.15;1.70;;;;;;;;;;4953897;28;20196;-66
2023/05/03 00:08:06;;;;;;;3.38;2.10;;;;;;;;;;4973085;28;20043;-66
2023/05/03 00:10:31;;;;;;;5.32;1.90;;;;;;;;;;4955500;28;20037;-66
2023/05/03 00:12:57;;;;;;;3.63;1.90;;;;;;;;;;4980212;28;20053;-66
2023/05/03 00:15:22;;;;;;;3.55;2.10;;;;;;;;;;4978348;28;20063;-66
2023/05/03 00:17:48;;;;;;;3.03;2.10;;;;;;;;;;4975975;28;20159;-66
2023/05/03 00:20:14;;;;;;;2.78;1.65;;;;;;;;;;4976595;28;20431;-66
2023/05/03 00:22:39;;;;;;;4.00;1.58;;;;;;;;;;4971097;28;20038;-66
2023/05/03 00:25:07;;;;;;;2.70;1.73;;;;;;;;;;4966154;28;20116;-66
2023/05/03 00:27:33;;;;;;;4.95;1.88;;;;;;;;;;4978813;28;20037;-66
2023/05/03 00:29:58;;;;;;;2.58;1.60;;;;;;;;;;4972855;28;20517;-65
2023/05/03 00:32:23;;;;;;;2.63;1.80;;;;;;;;;;4973076;28;20034;-65
2023/05/03 00:34:56;;;;;;;3.22;1.75;;;;;;;;;;4982654;28;20042;-64
2023/05/03 00:37:22;;;;;;;3.40;1.90;;;;;;;;;;4963465;28;20273;-65
2023/05/03 00:39:48;;;;;;;2.38;1.45;;;;;;;;;;4961613;28;20043;-65
2023/05/03 00:42:13;;;;;;;2.15;1.67;;;;;;;;;;4967833;28;20121;-65
2023/05/03 00:44:39;;;;;;;3.03;1.83;;;;;;;;;;4982935;28;20037;-66
2023/05/03 00:47:05;;;;;;;1.70;1.40;;;;;;;;;;4976876;28;20104;-65
2023/05/03 00:49:31;;;;;;;1.27;1.13;;;;;;;;;;4969231;28;20045;-65
2023/05/03 00:51:58;;;;;;;4.85;1.90;;;;;;;;;;4953414;28;20038;-65
2023/05/03 00:54:26;;;;;;;1.85;1.52;;;;;;;;;;4970567;28;20034;-68
2023/05/03 00:56:51;;;;;;;3.15;1.60;;;;;;;;;;4983075;28;20064;-66
2023/05/03 00:59:17;;;;;;;2.75;1.52;;;;;;;;;;4967986;28;20065;-64
2023/05/03 01:01:47;;;;;;;2.90;1.65;;;;;;;;;;4975301;28;20074;-65
2023/05/03 01:04:12;;;;;;;1.83;1.20;;;;;;;;;;4962422;28;20128;-65
2023/05/03 01:06:38;;;;;;;2.20;1.42;;;;;;;;;;4973565;28;20660;-67
2023/05/03 01:09:40;;;;;;;4.38;1.52;;;;;;;;;;4979527;28;20058;-62
2023/05/03 01:12:22;;;;;;;1.30;1.20;;;;;;;;;;4971701;28;20045;-63
2023/05/03 01:15:07;;;;;;;4.05;1.73;;;;;;;;;;4959997;28;20141;-63
2023/05/03 01:17:49;;;;;;;2.78;1.30;;;;;;;;;;4961138;28;20531;-61
2023/05/03 01:20:21;;;;;;;4.20;1.55;;;;;;;;;;4969696;28;22132;-63
2023/05/03 01:22:47;;;;;;;2.35;1.63;;;;;;;;;;4958495;28;20034;-62
2023/05/03 01:25:13;;;;;;;2.75;1.85;;;;;;;;;;4968761;28;21428;-62
2023/05/03 01:27:40;;;;;;;3.33;1.90;;;;;;;;;;4964650;28;20476;-62
2023/05/03 01:30:07;;;;;;;2.75;1.55;;;;;;;;;;4971433;28;20038;-62
2023/05/03 01:32:35;;;;;;;5.85;1.92;;;;;;;;;;4971605;28;20046;-64
2023/05/03 01:35:16;;;;;;;7.38;2.83;;;;;;;;;;4974478;28;20495;-63
2023/05/03 01:37:42;;;;;;;6.32;2.50;;;;;;;;;;4964774;28;20122;-62
2023/05/03 01:40:09;;;;;;;3.65;1.77;;;;;;;;;;4965722;28;20526;-63
2023/05/03 01:42:38;;;;;;;1.73;1.52;;;;;;;;;;4976616;28;20769;-62
2023/05/03 01:45:04;;;;;;;1.65;1.52;;;;;;;;;;4972297;28;20108;-63
2023/05/03 01:47:29;;;;;;;4.30;1.60;;;;;;;;;;4971633;28;20038;-66
2023/05/03 01:49:55;;;;;;;6.45;1.83;;;;;;;;;;4960873;28;20052;-66
2023/05/03 01:52:20;;;;;;;2.35;1.42;;;;;;;;;;4965290;28;20039;-65
2023/05/03 01:54:46;;;;;;;2.17;1.30;;;;;;;;;;4958429;28;20038;-65
2023/05/03 01:57:11;;;;;;;3.00;1.50;;;;;;;;;;4970261;28;20037;-62
2023/05/03 01:59:36;;;;;;;4.25;1.73;;;;;;;;;;4970703;28;20590;-63
2023/05/03 02:02:02;;;;;;;2.35;1.60;;;;;;;;;;4971676;28;20057;-62
2023/05/03 02:04:29;;;;;;;2.05;1.40;;;;;;;;;;4943062;28;20039;-64
2023/05/03 02:06:54;;;;;;;3.95;1.63;;;;;;;;;;4968787;28;20030;-63
2023/05/03 02:09:19;;;;;;;3.05;1.60;;;;;;;;;;4963860;28;20113;-63
2023/05/03 02:11:45;;;;;;;2.63;1.70;;;;;;;;;;4955408;28;20037;-63
2023/05/03 02:14:11;;;;;;;4.15;1.65;;;;;;;;;;4974519;28;20104;-64
2023/05/03 02:16:36;;;;;;;5.00;1.50;;;;;;;;;;4972966;28;20049;-64
2023/05/03 02:19:02;;;;;;;5.95;2.10;;;;;;;;;;4944172;28;20487;-64
2023/05/03 02:21:27;;;;;;;4.07;1.40;;;;;;;;;;4961027;28;20042;-62
2023/05/03 02:23:53;;;;;;;2.65;1.33;;;;;;;;;;4980999;28;20347;-64
2023/05/03 02:26:19;;;;;;;4.22;1.52;;;;;;;;;;4975397;28;20049;-63
2023/05/03 02:28:44;;;;;;;4.15;2.50;;;;;;;;;;4969406;28;20120;-65
2023/05/03 02:31:12;;;;;;;4.88;1.60;;;;;;;;;;4969994;28;20687;-63
2023/05/03 02:33:37;;;;;;;1.83;1.35;;;;;;;;;;4957655;28;21066;-64
2023/05/03 02:36:03;;;;;;;3.03;1.40;;;;;;;;;;4959105;28;20049;-63
2023/05/03 02:38:29;;;;;;;5.57;1.60;;;;;;;;;;4966650;28;20044;-63
2023/05/03 02:40:54;;;;;;;2.35;1.52;;;;;;;;;;4968191;28;20050;-64
2023/05/03 02:43:20;;;;;;;5.75;1.80;;;;;;;;;;4970752;28;20057;-62
2023/05/03 02:45:45;;;;;;;2.45;1.88;;;;;;;;;;4964883;28;20069;-64
2023/05/03 02:48:11;;;;;;;2.88;1.70;;;;;;;;;;4971881;28;20038;-67
2023/05/03 02:50:37;;;;;;;5.35;2.20;;;;;;;;;;4967972;28;20030;-64
2023/05/03 02:53:03;;;;;;;3.00;1.48;;;;;;;;;;4975175;28;20065;-66
2023/05/03 02:55:28;;;;;;;2.67;1.58;;;;;;;;;;4976566;28;20057;-63
2023/05/03 02:57:53;;;;;;;3.10;1.80;;;;;;;;;;4979799;28;20041;-65
2023/05/03 03:00:19;;;;;;;3.33;1.60;;;;;;;;;;4963178;28;20046;-64
2023/05/03 03:02:44;;;;;;;3.50;1.77;;;;;;;;;;4974260;28;20025;-66
2023/05/03 03:05:10;;;;;;;2.92;1.70;;;;;;;;;;4960885;28;20429;-68
2023/05/03 03:07:37;;;;;;;5.13;1.80;;;;;;;;;;4982496;28;20142;-62
2023/05/03 03:10:03;;;;;;;5.13;2.17;;;;;;;;;;4973132;28;20038;-65
2023/05/03 03:12:28;;;;;;;3.83;2.17;;;;;;;;;;4971360;28;20045;-63
2023/05/03 03:14:54;;;;;;;3.10;1.70;;;;;;;;;;4960722;28;20034;-65
2023/05/03 03:17:19;;;;;;;3.63;1.45;;;;;;;;;;4971892;28;20050;-63
2023/05/03 03:19:45;;;;;;;3.38;1.95;;;;;;;;;;4956369;28;20689;-65
2023/05/03 03:22:10;;;;;;;4.15;1.90;;;;;;;;;;4969260;28;20035;-64
2023/05/03 03:24:35;;;;;;;3.13;1.77;;;;;;;;;;4970473;28;20541;-63
2023/05/03 03:27:01;;;;;;;2.63;1.80;;;;;;;;;;4969254;28;20153;-63
2023/05/03 03:29:29;;;;;;;4.63;2.17;;;;;;;;;;4977512;28;20535;-64
2023/05/03 03:31:54;;;;;;;4.32;1.90;;;;;;;;;;4976321;28;20046;-63
2023/05/03 03:34:19;;;;;;;5.95;2.72;;;;;;;;;;4975138;28;20038;-65
2023/05/03 03:36:45;;;;;;;2.55;1.95;;;;;;;;;;4975020;28;20581;-64
2023/05/03 03:39:10;;;;;;;2.85;1.75;;;;;;;;;;4961674;28;20092;-66
2023/05/03 03:41:36;;;;;;;3.30;1.70;;;;;;;;;;4981470;28;20045;-64
2023/05/03 03:44:01;;;;;;;2.97;1.55;;;;;;;;;;4954465;28;20030;-64
2023/05/03 03:46:27;;;;;;;2.63;1.92;;;;;;;;;;4967848;28;20050;-65
2023/05/03 03:48:53;;;;;;;2.00;1.50;;;;;;;;;;4977159;28;20042;-66
2023/05/03 03:51:18;;;;;;;2.97;1.55;;;;;;;;;;4981101;28;20046;-64
2023/05/03 03:53:43;;;;;;;2.78;1.70;;;;;;;;;;4980255;28;20662;-65
2023/05/03 03:56:09;;;;;;;3.30;1.52;;;;;;;;;;4969954;28;20035;-64
2023/05/03 03:58:34;;;;;;;4.15;2.03;;;;;;;;;;4934443;28;20061;-64
2023/05/03 04:01:00;;;;;;;4.97;1.58;;;;;;;;;;4962531;28;20100;-64
2023/05/03 04:03:25;;;;;;;2.45;1.45;;;;;;;;;;4984690;28;20057;-64
2023/05/03 04:05:51;;;;;;;4.57;2.05;;;;;;;;;;4975732;28;20034;-63
2023/05/03 04:08:17;;;;;;;2.88;1.73;;;;;;;;;;4960182;28;20050;-65
2023/05/03 04:10:42;;;;;;;5.97;1.77;;;;;;;;;;4971068;28;20066;-65
2023/05/03 04:13:08;;;;;;;2.50;1.65;;;;;;;;;;4976900;28;20372;-63
2023/05/03 04:15:33;;;;;;;1.92;1.70;;;;;;;;;;4966434;28;20053;-65
2023/05/03 04:17:59;;;;;;;2.15;1.20;;;;;;;;;;4973500;28;20472;-66
2023/05/03 04:20:24;;;;;;;3.20;1.70;;;;;;;;;;4977035;28;20577;-64
2023/05/03 04:22:50;;;;;;;3.63;1.77;;;;;;;;;;4977506;28;20042;-66
2023/05/03 04:25:18;;;;;;;3.58;1.17;;;;;;;;;;4964833;28;20093;-64
2023/05/03 04:27:44;;;;;;;3.50;1.75;;;;;;;;;;4970669;28;20516;-65
2023/05/03 04:30:11;;;;;;;3.05;2.00;;;;;;;;;;4962723;28;20069;-65
2023/05/03 04:32:39;;;;;;;3.97;1.52;;;;;;;;;;4974700;28;20624;-65
2023/05/03 04:35:08;;;;;;;1.67;1.30;;;;;;;;;;4980778;28;20065;-65
2023/05/03 04:37:34;;;;;;;4.32;1.40;;;;;;;;;;4975847;28;20168;-65
2023/05/03 04:39:59;;;;;;;2.67;1.50;;;;;;;;;;4959700;28;20107;-65
2023/05/03 04:42:25;;;;;;;2.38;1.65;;;;;;;;;;4959887;28;20145;-65
2023/05/03 04:44:51;;;;;;;2.65;1.67;;;;;;;;;;4968557;28;20489;-66
2023/05/03 04:47:17;;;;;;;2.70;1.45;;;;;;;;;;4975646;28;20526;-67
2023/05/03 04:49:43;;;;;;;2.78;1.38;;;;;;;;;;4971225;28;20530;-66
2023/05/03 04:52:09;;;;;;;3.33;1.88;;;;;;;;;;4965317;28;20041;-65
2023/05/03 04:54:34;;;;;;;6.43;2.58;;;;;;;;;;4971872;28;20180;-64
2023/05/03 04:57:00;;;;;;;3.90;2.63;;;;;;;;;;4972105;28;20183;-64
2023/05/03 04:59:25;;;;;;;5.05;2.03;;;;;;;;;;4974682;28;20038;-63
2023/05/03 05:01:51;;;;;;;4.70;1.83;;;;;;;;;;4971837;28;20053;-63
2023/05/03 05:04:16;;;;;;;3.55;2.15;;;;;;;;;;4969096;28;20046;-63
2023/05/03 05:06:42;;;;;;;4.97;2.33;;;;;;;;;;4957145;28;20045;-64
2023/05/03 05:09:20;;;;;;;6.97;2.45;;;;;;;;;;4982609;28;20081;-63
2023/05/03 05:11:45;;;;;;;4.50;2.80;;;;;;;;;;4954672;28;20043;-64
2023/05/03 05:14:11;;;;;;;3.22;2.22;;;;;;;;;;4965875;28;20128;-66
2023/05/03 05:16:36;;;;;;;4.60;2.65;;;;;;;;;;4971828;28;20139;-66
2023/05/03 05:19:02;;;;;;;6.22;2.78;;;;;;;;;;4971871;28;20513;-66
2023/05/03 05:21:28;;;;;;;3.30;2.25;;;;;;;;;;4975057;28;20042;-64
2023/05/03 05:23:53;;;;;;;7.70;3.25;;;;;;;;;;4962162;28;20042;-65
2023/05/03 05:26:19;;;;;;;5.97;3.28;;;;;;;;;;4970650;28;20046;-63
2023/05/03 05:28:44;;;;;;;4.65;3.70;;;;;;;;;;4974095;28;20129;-67
2023/05/03 05:31:09;;;;;;;6.18;3.30;;;;;;;;;;4979571;28;20069;-62
2023/05/03 05:33:35;;;;;;;5.30;3.42;;;;;;;;;;4959499;28;20062;-66
2023/05/03 05:36:00;;;;;;;6.63;3.00;;;;;;;;;;4971511;28;20045;-64
2023/05/03 05:38:26;;;;;;;6.60;2.80;;;;;;;;;;4961139;28;20626;-67
2023/05/03 05:40:52;;;;;;;1.98;1.50;;;;;;;;;;4968651;28;20050;-65
2023/05/03 05:43:17;;;;;;;4.40;2.33;;;;;;;;;;4971444;28;20042;-66
2023/05/03 05:45:43;;;;;;;3.78;1.77;;;;;;;;;;4972435;28;20050;-66
2023/05/03 05:48:08;;;;;;;1.48;1.13;;;;;;;;;;4958014;28;20035;-65
2023/05/03 05:50:35;;;;;;;3.13;1.63;;;;;;;;;;4966459;28;20121;-68
2023/05/03 05:53:00;;;;;;;2.88;1.60;;;;;;;;;;4973050;28;20495;-65
2023/05/03 05:55:26;;;;;;;4.53;2.38;;;;;;;;;;4970074;28;20035;-67
2023/05/03 05:57:51;;;;;;;2.88;2.03;;;;;;;;;;4965931;28;20420;-65
2023/05/03 06:00:17;;;;;;;5.65;2.03;;;;;;;;;;4967771;28;20061;-68
2023/05/03 06:02:43;;;;;;;3.80;2.17;;;;;;;;;;4961208;28;20034;-67
2023/05/03 06:05:10;;;;;;;3.08;1.83;;;;;;;;;;4955047;28;20119;-68
2023/05/03 06:07:35;;;;;;;3.03;1.70;;;;;;;;;;4956680;28;20093;-66
2023/05/03 06:10:01;;;;;;;3.35;1.83;;;;;;;;;;4968913;28;20581;-65
2023/05/03 06:12:27;;;;;;;4.70;1.70;;;;;;;;;;4968536;28;20427;-65
2023/05/03 06:14:52;;;;;;;2.97;1.50;;;;;;;;;;4967204;28;20045;-66
2023/05/03 06:17:18;;;;;;;3.60;1.90;;;;;;;;;;4939451;28;20046;-67
2023/05/03 06:19:43;;;;;;;3.42;2.20;;;;;;;;;;4966155;28;20721;-65
2023/05/03 06:22:09;;;;;;;4.03;1.92;;;;;;;;;;4954870;28;20177;-67
2023/05/03 06:24:34;;;;;;;3.95;1.90;;;;;;;;;;4972039;28;20129;-66
2023/05/03 06:26:59;;;;;;;4.80;1.52;;;;;;;;;;4971185;28;20062;-66
2023/05/03 06:29:25;;;;;;;3.97;1.85;;;;;;;;;;4974569;28;20053;-69
2023/05/03 06:31:51;;;;;;;3.42;1.63;;;;;;;;;;4961701;28;20646;-70
2023/05/03 06:34:23;;;;;;;3.17;1.90;;;;;;;;;;4966075;28;20125;-66
2023/05/03 06:36:49;;;;;;;4.28;2.17;;;;;;;;;;4970523;28;20092;-67
2023/05/03 06:39:14;;;;;;;3.22;1.85;;;;;;;;;;4970489;28;20046;-69
2023/05/03 06:41:40;;;;;;;5.18;2.15;;;;;;;;;;4972938;28;20034;-69
2023/05/03 06:44:08;;;;;;;6.25;2.20;;;;;;;;;;4957261;28;20045;-67
2023/05/03 06:46:33;;;;;;;2.38;1.63;;;;;;;;;;4960157;28;20584;-68
2023/05/03 06:48:59;;;;;;;4.65;2.08;;;;;;;;;;4959439;28;20031;-68
2023/05/03 06:51:29;;;;;;;3.30;2.08;;;;;;;;;;4954459;28;20098;-69
2023/05/03 06:53:55;;;;;;;5.10;1.80;;;;;;;;;;4944390;28;20128;-69
2023/05/03 06:56:21;;;;;;;5.93;2.10;;;;;;;;;;4963498;28;20586;-69
2023/05/03 06:58:46;;;;;;;3.40;1.90;;;;;;;;;;4964332;28;20176;-69
2023/05/03 07:01:12;;;;;;;2.22;1.40;;;;;;;;;;4968826;28;20049;-69
2023/05/03 07:03:37;;;;;;;4.28;1.90;;;;;;;;;;4960213;28;20046;-70
2023/05/03 07:06:03;;;;;;;2.83;1.30;;;;;;;;;;4959972;28;20078;-69
2023/05/03 07:08:28;;;;;;;1.20;1.10;;;;;;;;;;4947188;28;20038;-69
2023/05/03 07:10:54;;;;;;;1.48;1.25;;;;;;;;;;4956243;28;20486;-69
2023/05/03 07:13:19;;;;;;;3.58;1.27;;;;;;;;;;4961317;28;20048;-69
2023/05/03 07:15:45;;;;;;;2.70;1.60;;;;;;;;;;4955580;28;20098;-69
2023/05/03 07:18:10;;;;;;;1.63;0.95;;;;;;;;;;4945940;28;20061;-68
2023/05/03 07:20:36;;;;;;;3.75;1.25;;;;;;;;;;4971239;28;20062;-68
2023/05/03 07:23:01;;;;;;;5.60;1.90;;;;;;;;;;4948979;28;20561;-69
2023/05/03 07:25:26;;;;;;;2.75;1.60;;;;;;;;;;4939955;28;20112;-69
2023/05/03 07:27:52;;;;;;;2.25;1.20;;;;;;;;;;4974170;28;20049;-69
2023/05/03 07:30:17;;;;;;;5.10;1.65;;;;;;;;;;4968098;28;20030;-69
2023/05/03 07:32:43;;;;;;;3.17;1.40;;;;;;;;;;4946719;28;20054;-69
2023/05/03 07:35:09;;;;;;;3.53;1.80;;;;;;;;;;4964690;28;20070;-69
2023/05/03 07:37:34;;;;;;;5.03;1.30;;;;;;;;;;4976212;28;20061;-69
2023/05/03 07:39:59;;;;;;;3.38;1.30;;;;;;;;;;4962523;28;20030;-69
2023/05/03 07:42:25;;;;;;;3.95;1.55;;;;;;;;;;4974165;28;20113;-69
2023/05/03 07:44:51;;;;;;;3.55;1.63;;;;;;;;;;4959492;28;20041;-69
2023/05/03 07:47:16;;;;;;;2.95;1.42;;;;;;;;;;4973455;28;20527;-69
2023/05/03 07:49:42;;;;;;;3.25;1.55;;;;;;;;;;4975582;28;20066;-69
2023/05/03 07:52:08;;;;;;;1.75;1.25;;;;;;;;;;4976742;28;20486;-69
2023/05/03 07:54:33;;;;;;;4.40;1.35;;;;;;;;;;4927002;28;20053;-69
2023/05/03 07:56:59;;;;;;;1.85;1.45;;;;;;;;;;4973828;28;20725;-69
2023/05/03 07:59:25;;;;;;;4.50;1.60;;;;;;;;;;4945807;28;20521;-69
2023/05/03 08:01:50;;;;;;;5.03;1.80;;;;;;;;;;4965682;28;20129;-68
2023/05/03 08:04:15;;;;;;;3.70;1.50;;;;;;;;;;4956376;28;20594;-68
2023/05/03 08:06:41;;;;;;;2.55;1.58;;;;;;;;;;4970807;28;20042;-69
2023/05/03 08:09:07;;;;;;;2.35;1.63;;;;;;;;;;4956424;28;20050;-69
2023/05/03 08:11:33;;;;;;;3.08;1.52;;;;;;;;;;4972709;28;20726;-68
2023/05/03 08:13:58;;;;;;;3.78;1.75;;;;;;;;;;4958121;28;20052;-68
2023/05/03 08:16:24;;;;;;;3.47;1.80;;;;;;;;;;4957575;28;20046;-69
2023/05/03 08:18:49;;;;;;;5.05;1.83;;;;;;;;;;4976129;28;20431;-68
2023/05/03 08:21:16;;;;;;;4.13;2.03;;;;;;;;;;4973252;28;20534;-68
2023/05/03 08:23:41;;;;;;;4.60;1.52;;;;;;;;;;4957141;28;20031;-69
2023/05/03 08:26:08;;;;;;;2.47;1.38;;;;;;;;;;4973905;28;20048;-68
2023/05/03 08:28:34;;;;;;;2.10;1.50;;;;;;;;;;4961318;28;20057;-68
2023/05/03 08:31:01;;;;;;;2.65;1.55;;;;;;;;;;4977182;28;20518;-69
2023/05/03 08:33:27;;;;;;;3.25;1.70;;;;;;;;;;4961070;28;20081;-68
2023/05/03 08:35:52;;;;;;;3.42;1.08;;;;;;;;;;4952862;28;20495;-69
2023/05/03 08:38:18;;;;;;;4.50;1.58;;;;;;;;;;4969242;28;20517;-69
2023/05/03 08:40:47;;;;;;;1.92;1.30;;;;;;;;;;4974465;28;20037;-70
2023/05/03 08:43:14;;;;;;;1.58;1.20;;;;;;;;;;4943280;28;20054;-69
2023/05/03 08:45:40;;;;;;;2.95;1.30;;;;;;;;;;4967069;28;20101;-69
2023/05/03 08:48:05;;;;;;;2.70;1.40;;;;;;;;;;4955031;28;20034;-69
2023/05/03 08:50:36;;;;;;;2.08;1.40;;;;;;;;;;4958520;28;20042;-69
2023/05/03 08:53:03;;;;;;;2.15;1.60;;;;;;;;;;4974791;28;21682;-69
2023/05/03 08:55:28;;;;;;;3.83;1.83;;;;;;;;;;4951941;28;20041;-70
2023/05/03 08:57:54;;;;;;;4.22;1.48;;;;;;;;;;4981214;28;20038;-70
2023/05/03 09:00:27;;;;;;;5.32;1.65;;;;;;;;;;4970305;28;20084;-69
2023/05/03 09:02:52;;;;;;;4.95;1.48;;;;;;;;;;4964592;28;20034;-69
2023/05/03 09:05:18;;;;;;;2.58;1.40;;;;;;;;;;4961540;28;20045;-68
2023/05/03 09:08:09;;;;;;;1.75;1.10;;;;;;;;;;4957156;28;20139;-69
2023/05/03 09:10:39;;;;;;;3.65;1.83;;;;;;;;;;4929516;28;20500;-68
2023/05/03 09:13:06;;;;;;;2.90;1.35;;;;;;;;;;4971276;28;20041;-69
2023/05/03 09:15:32;;;;;;;2.40;1.50;;;;;;;;;;4941798;28;20034;-69
2023/05/03 09:18:16;;;;;;;2.92;1.42;;;;;;;;;;4967322;28;20038;-69
2023/05/03 09:20:50;;;;;;;3.55;1.40;;;;;;;;;;4955633;28;20058;-68
2023/05/03 09:23:16;;;;;;;3.55;1.30;;;;;;;;;;4968387;28;20498;-68
2023/05/03 09:25:50;;;;;;;4.03;1.67;;;;;;;;;;4948464;28;20585;-68
2023/05/03 09:28:16;;;;;;;3.20;1.30;;;;;;;;;;4972287;28;20427;-68
2023/05/03 09:30:43;;;;;;;3.42;1.58;;;;;;;;;;4976209;28;20045;-69
2023/05/03 09:33:10;;;;;;;5.05;1.63;;;;;;;;;;4963205;28;20042;-68
2023/05/03 09:35:36;;;;;;;2.47;1.48;;;;;;;;;;4964345;28;22446;-69
2023/05/03 09:38:01;;;;;;;2.78;1.65;;;;;;;;;;4967454;28;20034;-70
2023/05/03 09:40:28;;;;;;;1.80;1.20;;;;;;;;;;4960287;28;21141;-68
2023/05/03 09:43:10;;;;;;;3.60;1.40;;;;;;;;;;4971008;28;20042;-69
2023/05/03 09:45:39;;;;;;;2.38;1.45;;;;;;;;;;4952572;28;20056;-68
2023/05/03 09:48:06;;;;;;;2.83;1.23;;;;;;;;;;4971677;28;20474;-68
2023/05/03 09:50:35;;;;;;;2.75;1.60;;;;;;;;;;4971090;28;20070;-68
2023/05/03 09:53:05;;;;;;;2.58;1.17;;;;;;;;;;4940376;28;20114;-69
2023/05/03 09:55:35;;;;;;;1.90;1.30;;;;;;;;;;4951334;28;20101;-68
2023/05/03 09:58:08;;;;;;;4.28;1.73;;;;;;;;;;4962611;28;20037;-69
2023/05/03 10:00:39;;;;;;;4.55;1.55;;;;;;;;;;4971360;28;20045;-68
2023/05/03 10:03:09;;;;;;;3.78;1.38;;;;;;;;;;4959996;28;20053;-69
2023/05/03 10:05:53;;;;;;;3.53;1.27;;;;;;;;;;4962190;28;20041;-69
2023/05/03 10:08:27;;;;;;;4.15;1.40;;;;;;;;;;4961438;28;20054;-68
2023/05/03 10:10:53;;;;;;;3.55;1.55;;;;;;;;;;4970364;28;20112;-69
2023/05/03 10:13:21;;;;;;;2.72;1.63;;;;;;;;;;4969741;28;20050;-69
2023/05/03 10:15:51;;;;;;;3.20;1.55;;;;;;;;;;4957189;28;20127;-69
2023/05/03 10:18:19;;;;;;;3.95;1.70;;;;;;;;;;4966561;28;20041;-70
2023/05/03 10:20:51;;;;;;;3.40;1.50;;;;;;;;;;4956239;28;20049;-68
2023/05/03 10:23:17;;;;;;;2.45;1.45;;;;;;;;;;4961702;28;20061;-69
2023/05/03 10:26:08;;;;;;;3.33;1.23;;;;;;;;;;4958332;28;20046;-69
2023/05/03 10:28:35;;;;;;;2.40;1.42;;;;;;;;;;4938618;28;20046;-69
2023/05/03 10:31:01;;;;;;;2.35;1.30;;;;;;;;;;4968771;28;20146;-70
2023/05/03 10:33:30;;;;;;;2.55;1.10;;;;;;;;;;4971714;28;20042;-69
2023/05/03 10:35:56;;;;;;;2.97;1.33;;;;;;;;;;4934215;28;20063;-70
2023/05/03 10:38:26;;;;;;;2.08;1.42;;;;;;;;;;4960950;28;20053;-71
2023/05/03 10:40:53;;;;;;;3.25;1.40;;;;;;;;;;4958828;28;20030;-68
2023/05/03 10:43:31;;;;;;;3.85;1.55;;;;;;;;;;4971042;28;20038;-69
2023/05/03 10:46:07;;;;;;;3.20;1.10;;;;;;;;;;4964927;28;20053;-70
2023/05/03 10:48:33;;;;;;;4.25;1.20;;;;;;;;;;4973275;28;20071;-70
2023/05/03 10:51:27;;;;;;;2.00;1.30;;;;;;;;;;4970310;28;20042;-71
2023/05/03 10:53:53;;;;;;;1.58;1.15;;;;;;;;;;4939032;28;20030;-68
2023/05/03 10:56:18;;;;;;;2.20;1.35;;;;;;;;;;4958786;28;20237;-70
2023/05/03 10:58:49;;;;;;;2.17;1.00;;;;;;;;;;4960287;28;20034;-70
2023/05/03 11:01:16;;;;;;;3.85;1.30;;;;;;;;;;4968949;28;20123;-70
2023/05/03 11:04:08;;;;;;;2.58;1.13;;;;;;;;;;4966841;28;20042;-70
2023/05/03 11:06:36;;;;;;;;;;;;;;;;;;4933961;28;20544;-69
2023/05/03 11:09:06;;;;;;;2.42;1.08;;;;;;;;;;4961465;28;20020;-69
2023/05/03 11:11:32;;;;;;;4.65;1.00;;;;;;;;;;4970033;28;20039;-71
2023/05/03 11:13:58;;;;;;;3.28;1.33;;;;;;;;;;4962618;28;20061;-70
2023/05/03 11:16:24;;;;;;;3.58;1.08;;;;;;;;;;4971259;28;20501;-71
2023/05/03 11:18:50;;;;;;;1.23;0.98;;;;;;;;;;4955545;28;20074;-70
2023/05/03 11:21:16;;;;;;;2.17;1.27;;;;;;;;;;4951290;28;20059;-69
2023/05/03 11:23:42;;;;;;;1.73;0.82;;;;;;;;;;4939278;28;20172;-69
2023/05/03 11:26:08;;;;;;;1.63;0.95;;;;;;;;;;4967791;28;20042;-70
2023/05/03 11:31:56;;;;;;;1.75;1.00;;;;;;;;;;4922317;28;20134;-70
2023/05/03 11:34:21;;;;;;;1.55;1.02;;;;;;;;;;4967394;28;20896;-70
2023/05/03 11:36:48;;;;;;;1.65;0.95;;;;;;;;;;4967038;28;20040;-70
2023/05/03 11:39:14;;;;;;;3.50;1.85;;;;;;;;;;4949773;28;20068;-70
2023/05/03 11:41:41;;;;;;;2.63;1.10;;;;;;;;;;4974748;28;20030;-70
2023/05/03 11:44:06;;;;;;;2.72;0.95;;;;;;;;;;4960144;28;20604;-71
2023/05/03 11:46:34;;;;;;;1.58;1.10;;;;;;;;;;4956819;28;20041;-70
2023/05/03 11:49:01;;;;;;;1.40;0.80;;;;;;;;;;4974602;28;20511;-71
2023/05/03 11:51:27;;;;;;;1.10;0.80;;;;;;;;;;4976455;28;20046;-70
2023/05/03 11:53:52;;;;;;;2.70;0.90;;;;;;;;;;4973959;28;20039;-69
2023/05/03 11:56:19;;;;;;;2.67;0.85;;;;;;;;;;4956326;28;20077;-71
2023/05/03 11:58:59;;;;;;;2.75;1.08;;;;;;;;;;4938580;28;20046;-70
2023/05/03 12:01:27;;;;;;;4.18;1.15;;;;;;;;;;4959765;28;20066;-71
2023/05/03 12:03:56;;;;;;;1.60;0.90;;;;;;;;;;4968165;28;20037;-71
2023/05/03 12:06:23;;;;;;;2.15;1.10;;;;;;;;;;4973923;28;20098;-70
2023/05/03 12:08:48;;;;;;;1.65;1.00;;;;;;;;;;4973172;28;20067;-71
2023/05/03 12:11:14;;;;;;;1.70;0.85;;;;;;;;;;4950175;28;20884;-71
2023/05/03 12:13:40;;;;;;;2.10;0.90;;;;;;;;;;4969723;28;20118;-69
2023/05/03 12:16:06;;;;;;;2.15;0.75;;;;;;;;;;4974743;28;20042;-69
2023/05/03 12:19:01;;;;;;;1.42;0.85;;;;;;;;;;4962418;28;20045;-71
2023/05/03 12:21:42;;;;;;;2.92;1.00;;;;;;;;;;4953346;28;20038;-71
2023/05/03 12:24:08;;;;;;;6.47;1.17;;;;;;;;;;4961688;28;20081;-71
2023/05/03 12:26:34;;;;;;;1.58;1.00;;;;;;;;;;4963717;28;20034;-71
2023/05/03 12:29:00;;;;;;;2.30;1.00;;;;;;;;;;4970607;28;20042;-70
2023/05/03 12:31:25;;;;;;;3.85;1.25;;;;;;;;;;4968569;28;20137;-70
2023/05/03 12:33:51;;;;;;;2.30;1.10;;;;;;;;;;4959232;28;20039;-70
2023/05/03 12:36:18;;;;;;;1.40;0.93;;;;;;;;;;4949147;28;20420;-70
2023/05/03 12:38:43;;;;;;;2.05;0.95;;;;;;;;;;4969155;28;20041;-70
2023/05/03 12:41:10;;;;;;;2.40;1.10;;;;;;;;;;4974536;28;20042;-71
2023/05/03 12:43:35;;;;;;;2.53;0.90;;;;;;;;;;4974340;28;20080;-71
2023/05/03 12:46:01;;;;;;;2.05;1.00;;;;;;;;;;4953045;28;20498;-69
2023/05/03 12:48:27;;;;;;;2.35;1.00;;;;;;;;;;4955718;28;20050;-71
2023/05/03 12:50:53;;;;;;;2.38;0.90;;;;;;;;;;4963783;28;20053;-71
2023/05/03 12:53:19;;;;;;;2.83;1.00;;;;;;;;;;4972413;28;20057;-71
2023/05/03 12:55:45;;;;;;;5.53;1.20;;;;;;;;;;4964055;28;20414;-72
2023/05/03 12:58:11;;;;;;;1.33;0.90;;;;;;;;;;4971514;28;20082;-71
2023/05/03 13:00:36;;;;;;;2.00;0.82;;;;;;;;;;4974918;28;20125;-71
2023/05/03 13:03:02;;;;;;;2.92;1.00;;;;;;;;;;4963439;28;20039;-72
2023/05/03 13:05:28;;;;;;;1.60;0.90;;;;;;;;;;4963295;28;20042;-72
2023/05/03 13:07:53;;;;;;;3.03;1.10;;;;;;;;;;4973331;28;20092;-70
2023/05/03 13:10:19;;;;;;;3.33;1.02;;;;;;;;;;4966312;28;20162;-70
2023/05/03 13:12:45;;;;;;;2.63;0.80;;;;;;;;;;4958761;28;20046;-71
2023/05/03 13:15:10;;;;;;;1.80;0.80;;;;;;;;;;4953995;28;20040;-71
2023/05/03 13:17:36;;;;;;;2.50;0.98;;;;;;;;;;4963954;28;20047;-71
2023/05/03 13:20:02;;;;;;;2.13;1.20;;;;;;;;;;4959496;28;20055;-70
2023/05/03 13:22:27;;;;;;;1.98;0.90;;;;;;;;;;4968467;28;20045;-71
2023/05/03 13:24:53;;;;;;;2.35;0.90;;;;;;;;;;4961453;28;20034;-70
2023/05/03 13:27:18;;;;;;;2.38;1.20;;;;;;;;;;4969953;28;20100;-71
2023/05/03 13:29:44;;;;;;;2.75;1.23;;;;;;;;;;4961727;28;20054;-71
2023/05/03 13:32:11;;;;;;;1.65;0.95;;;;;;;;;;4965407;28;20101;-71
2023/05/03 13:34:36;;;;;;;2.63;1.20;;;;;;;;;;4968513;28;20088;-71
2023/05/03 13:37:03;;;;;;;2.00;1.00;;;;;;;;;;4964284;28;20034;-70
2023/05/03 13:39:28;;;;;;;4.50;1.27;;;;;;;;;;4957053;28;20148;-71
2023/05/03 13:41:53;;;;;;;3.35;1.20;;;;;;;;;;4972070;28;20141;-71
2023/05/03 13:44:23;;;;;;;3.30;1.15;;;;;;;;;;4953314;28;20674;-71
2023/05/03 13:46:49;;;;;;;3.13;1.00;;;;;;;;;;4958433;28;20049;-71
2023/05/03 13:49:15;;;;;;;3.65;0.88;;;;;;;;;;4971455;28;20034;-71
2023/05/03 13:51:42;;;;;;;3.20;1.10;;;;;;;;;;4972435;28;20069;-71
2023/05/03 13:54:07;;;;;;;3.53;1.25;;;;;;;;;;4968108;28;20037;-71
2023/05/03 13:56:34;;;;;;;1.67;0.93;;;;;;;;;;4972063;28;20030;-71
2023/05/03 13:58:59;;;;;;;1.67;0.70;;;;;;;;;;4960749;28;20031;-71
2023/05/03 14:01:26;;;;;;;3.03;1.05;;;;;;;;;;4946597;28;20475;-71
2023/05/03 14:03:52;;;;;;;3.83;0.93;;;;;;;;;;4965269;28;20042;-71
2023/05/03 14:06:19;;;;;;;1.15;1.05;;;;;;;;;;4978047;28;20526;-71
2023/05/03 14:08:46;;;;;;;3.63;1.48;;;;;;;;;;4974051;28;20644;-71
2023/05/03 14:11:16;;;;;;;1.52;0.90;;;;;;;;;;4960597;28;20138;-71
2023/05/03 14:13:42;;;;;;;2.83;0.90;;;;;;;;;;4956167;28;20041;-71
2023/05/03 14:16:21;;;;;;;2.92;1.02;;;;;;;;;;4965125;28;20042;-71
2023/05/03 14:18:48;;;;;;;1.42;0.80;;;;;;;;;;4976006;28;20038;-71
2023/05/03 14:21:13;;;;;;;1.02;0.80;;;;;;;;;;4973625;28;20045;-71
2023/05/03 14:23:39;;;;;;;4.30;1.00;;;;;;;;;;4956759;28;20045;-71
2023/05/03 14:26:07;;;;;;;2.70;0.93;;;;;;;;;;4959390;28;20046;-71
2023/05/03 14:28:32;;;;;;;3.25;1.00;;;;;;;;;;4974235;28;20037;-71
2023/05/03 14:30:58;;;;;;;1.88;1.00;;;;;;;;;;4968876;28;20088;-71
2023/05/03 14:33:23;;;;;;;4.78;1.27;;;;;;;;;;4971603;28;20057;-71
2023/05/03 14:35:48;;;;;;;2.85;1.08;;;;;;;;;;4964019;28;20116;-71
2023/05/03 14:38:14;;;;;;;1.02;0.80;;;;;;;;;;4962112;28;20598;-71
2023/05/03 14:40:43;;;;;;;2.42;1.10;;;;;;;;;;4957157;28;20124;-71
2023/05/03 14:43:08;;;;;;;3.22;1.02;;;;;;;;;;4970934;28;20644;-71
2023/05/03 14:45:35;;;;;;;3.42;1.10;;;;;;;;;;4958897;28;20166;-71